sensor_id;sensor_type;location;lat;lon;timestamp;P1;durP1;ratioP1;P2;durP2;ratioP2
6825;SDS011;3451;52.476;13.316;2022-08-11T00:01:56;3.83;;;2.30;;
6825;SDS011;3451;52.476;13.316;2022-08-11T00:04:26;2.77;;;1.80;;
6825;SDS011;3451;52.476;13.316;2022-08-11T00:07:01;3.83;;;2.03;;
6825;SDS011;3451;52.476;13.316;2022-08-11T00:09:31;7.20;;;2.07;;
6825;SDS011;3451;52.476;13.316;2022-08-11T00:12:05;2.70;;;1.70;;
6825;SDS011;3451;52.476;13.316;2022-08-11T00:14:38;3.90;;;2.20;;
6825;SDS011;3451;52.476;13.316;2022-08-11T00:17:12;3.73;;;1.97;;
6825;SDS011;3451;52.476;13.316;2022-08-11T00:19:43;4.30;;;1.80;;
6825;SDS011;3451;52.476;13.316;2022-08-11T00:22:31;2.90;;;1.83;;
6825;SDS011;3451;52.476;13.316;2022-08-11T00:24:59;3.43;;;2.07;;
6825;SDS011;3451;52.476;13.316;2022-08-11T00:27:36;1.83;;;1.50;;
6825;SDS011;3451;52.476;13.316;2022-08-11T00:30:05;2.00;;;1.60;;
6825;SDS011;3451;52.476;13.316;2022-08-11T00:32:32;3.20;;;1.90;;
6825;SDS011;3451;52.476;13.316;2022-08-11T00:35:00;3.40;;;1.83;;
6825;SDS011;3451;52.476;13.316;2022-08-11T00:37:51;3.07;;;1.77;;
6825;SDS011;3451;52.476;13.316;2022-08-11T00:40:22;3.43;;;1.90;;
6825;SDS011;3451;52.476;13.316;2022-08-11T00:46:13;6.83;;;2.17;;
6825;SDS011;3451;52.476;13.316;2022-08-11T00:48:58;3.80;;;1.70;;
6825;SDS011;3451;52.476;13.316;2022-08-11T00:57:38;3.50;;;1.93;;
6825;SDS011;3451;52.476;13.316;2022-08-11T01:00:25;3.23;;;2.00;;
6825;SDS011;3451;52.476;13.316;2022-08-11T01:08:57;5.33;;;2.00;;
6825;SDS011;3451;52.476;13.316;2022-08-11T01:27:05;4.60;;;2.30;;
6825;SDS011;3451;52.476;13.316;2022-08-11T01:33:24;2.93;;;2.10;;
6825;SDS011;3451;52.476;13.316;2022-08-11T01:45:34;5.10;;;2.37;;
6825;SDS011;3451;52.476;13.316;2022-08-11T01:51:02;3.23;;;2.00;;
6825;SDS011;3451;52.476;13.316;2022-08-11T01:53:53;5.33;;;2.00;;
6825;SDS011;3451;52.476;13.316;2022-08-11T01:56:32;3.80;;;2.10;;
6825;SDS011;3451;52.476;13.316;2022-08-11T01:59:08;4.67;;;2.27;;
6825;SDS011;3451;52.476;13.316;2022-08-11T02:01:51;3.90;;;2.10;;
6825;SDS011;3451;52.476;13.316;2022-08-11T02:04:58;5.53;;;2.47;;
6825;SDS011;3451;52.476;13.316;2022-08-11T02:07:34;3.67;;;2.17;;
6825;SDS011;3451;52.476;13.316;2022-08-11T02:10:21;3.97;;;2.03;;
6825;SDS011;3451;52.476;13.316;2022-08-11T02:13:36;3.97;;;2.03;;
6825;SDS011;3451;52.476;13.316;2022-08-11T02:22:08;7.60;;;2.30;;
6825;SDS011;3451;52.476;13.316;2022-08-11T02:25:05;3.30;;;2.10;;
6825;SDS011;3451;52.476;13.316;2022-08-11T02:27:39;3.23;;;2.73;;
6825;SDS011;3451;52.476;13.316;2022-08-11T02:30:15;4.10;;;2.37;;
6825;SDS011;3451;52.476;13.316;2022-08-11T02:32:55;6.43;;;2.30;;
6825;SDS011;3451;52.476;13.316;2022-08-11T02:35:56;3.40;;;2.33;;
6825;SDS011;3451;52.476;13.316;2022-08-11T02:41:35;4.60;;;2.60;;
6825;SDS011;3451;52.476;13.316;2022-08-11T02:50:38;4.33;;;2.63;;
6825;SDS011;3451;52.476;13.316;2022-08-11T02:53:29;5.43;;;2.40;;
6825;SDS011;3451;52.476;13.316;2022-08-11T02:56:10;3.93;;;2.50;;
6825;SDS011;3451;52.476;13.316;2022-08-11T02:58:54;3.80;;;2.60;;
6825;SDS011;3451;52.476;13.316;2022-08-11T03:01:49;4.77;;;2.53;;
6825;SDS011;3451;52.476;13.316;2022-08-11T03:04:35;10.13;;;2.47;;
6825;SDS011;3451;52.476;13.316;2022-08-11T03:07:20;4.00;;;2.10;;
6825;SDS011;3451;52.476;13.316;2022-08-11T03:10:01;5.27;;;2.30;;
6825;SDS011;3451;52.476;13.316;2022-08-11T03:15:41;3.83;;;2.57;;
6825;SDS011;3451;52.476;13.316;2022-08-11T03:18:40;5.90;;;2.90;;
6825;SDS011;3451;52.476;13.316;2022-08-11T03:24:24;6.87;;;2.50;;
6825;SDS011;3451;52.476;13.316;2022-08-11T03:27:05;4.87;;;2.60;;
6825;SDS011;3451;52.476;13.316;2022-08-11T03:32:19;6.47;;;2.80;;
6825;SDS011;3451;52.476;13.316;2022-08-11T03:34:54;6.57;;;2.30;;
6825;SDS011;3451;52.476;13.316;2022-08-11T03:43:56;4.70;;;2.83;;
6825;SDS011;3451;52.476;13.316;2022-08-11T03:52:36;9.67;;;2.87;;
6825;SDS011;3451;52.476;13.316;2022-08-11T03:58:27;8.87;;;2.87;;
6825;SDS011;3451;52.476;13.316;2022-08-11T04:04:10;4.70;;;2.77;;
6825;SDS011;3451;52.476;13.316;2022-08-11T04:09:54;6.40;;;3.40;;
6825;SDS011;3451;52.476;13.316;2022-08-11T04:18:52;5.37;;;3.13;;
6825;SDS011;3451;52.476;13.316;2022-08-11T04:25:05;5.30;;;3.00;;
6825;SDS011;3451;52.476;13.316;2022-08-11T04:28:05;9.13;;;6.13;;
6825;SDS011;3451;52.476;13.316;2022-08-11T04:31:06;16.67;;;10.00;;
6825;SDS011;3451;52.476;13.316;2022-08-11T04:37:08;6.97;;;3.17;;
6825;SDS011;3451;52.476;13.316;2022-08-11T04:40:12;3.83;;;2.83;;
6825;SDS011;3451;52.476;13.316;2022-08-11T04:46:11;5.47;;;3.03;;
6825;SDS011;3451;52.476;13.316;2022-08-11T04:52:16;6.33;;;3.40;;
6825;SDS011;3451;52.476;13.316;2022-08-11T04:55:31;8.90;;;3.50;;
6825;SDS011;3451;52.476;13.316;2022-08-11T05:04:11;6.57;;;3.10;;
6825;SDS011;3451;52.476;13.316;2022-08-11T05:13:08;7.13;;;3.67;;
6825;SDS011;3451;52.476;13.316;2022-08-11T05:15:56;6.97;;;3.77;;
6825;SDS011;3451;52.476;13.316;2022-08-11T05:18:47;7.70;;;3.97;;
6825;SDS011;3451;52.476;13.316;2022-08-11T05:21:34;7.17;;;3.80;;
6825;SDS011;3451;52.476;13.316;2022-08-11T05:24:23;8.43;;;4.00;;
6825;SDS011;3451;52.476;13.316;2022-08-11T05:27:14;8.13;;;4.50;;
6825;SDS011;3451;52.476;13.316;2022-08-11T05:30:06;8.30;;;3.87;;
6825;SDS011;3451;52.476;13.316;2022-08-11T05:33:04;11.13;;;4.57;;
6825;SDS011;3451;52.476;13.316;2022-08-11T05:36:00;9.40;;;4.20;;
6825;SDS011;3451;52.476;13.316;2022-08-11T05:38:37;8.30;;;4.10;;
6825;SDS011;3451;52.476;13.316;2022-08-11T05:41:23;7.50;;;4.33;;
6825;SDS011;3451;52.476;13.316;2022-08-11T05:44:17;6.67;;;4.33;;
6825;SDS011;3451;52.476;13.316;2022-08-11T05:47:05;5.67;;;4.10;;
6825;SDS011;3451;52.476;13.316;2022-08-11T05:49:50;7.37;;;4.30;;
6825;SDS011;3451;52.476;13.316;2022-08-11T05:52:43;10.13;;;4.57;;
6825;SDS011;3451;52.476;13.316;2022-08-11T05:55:35;9.57;;;4.70;;
6825;SDS011;3451;52.476;13.316;2022-08-11T05:58:36;9.57;;;4.10;;
6825;SDS011;3451;52.476;13.316;2022-08-11T06:01:08;9.80;;;4.30;;
6825;SDS011;3451;52.476;13.316;2022-08-11T06:03:39;9.47;;;4.47;;
6825;SDS011;3451;52.476;13.316;2022-08-11T06:06:28;4.93;;;3.83;;
6825;SDS011;3451;52.476;13.316;2022-08-11T06:08:56;5.50;;;4.10;;
6825;SDS011;3451;52.476;13.316;2022-08-11T06:11:24;5.17;;;4.10;;
6825;SDS011;3451;52.476;13.316;2022-08-11T06:14:10;10.33;;;4.63;;
6825;SDS011;3451;52.476;13.316;2022-08-11T06:16:37;7.77;;;4.60;;
6825;SDS011;3451;52.476;13.316;2022-08-11T06:19:07;6.47;;;4.20;;
6825;SDS011;3451;52.476;13.316;2022-08-11T06:21:34;10.83;;;4.37;;
6825;SDS011;3451;52.476;13.316;2022-08-11T06:24:03;7.23;;;3.73;;
6825;SDS011;3451;52.476;13.316;2022-08-11T06:26:39;7.17;;;4.07;;
6825;SDS011;3451;52.476;13.316;2022-08-11T06:29:26;7.73;;;4.20;;
6825;SDS011;3451;52.476;13.316;2022-08-11T06:32:03;8.23;;;4.13;;
6825;SDS011;3451;52.476;13.316;2022-08-11T06:37:29;6.67;;;4.30;;
6825;SDS011;3451;52.476;13.316;2022-08-11T06:40:45;7.77;;;4.43;;
6825;SDS011;3451;52.476;13.316;2022-08-11T06:43:36;8.13;;;4.30;;
6825;SDS011;3451;52.476;13.316;2022-08-11T06:46:30;9.90;;;4.07;;
6825;SDS011;3451;52.476;13.316;2022-08-11T06:49:02;9.50;;;4.40;;
6825;SDS011;3451;52.476;13.316;2022-08-11T06:51:53;9.33;;;3.77;;
6825;SDS011;3451;52.476;13.316;2022-08-11T06:54:31;11.80;;;4.10;;
6825;SDS011;3451;52.476;13.316;2022-08-11T06:56:59;11.00;;;4.27;;
6825;SDS011;3451;52.476;13.316;2022-08-11T06:59:56;6.13;;;3.30;;
6825;SDS011;3451;52.476;13.316;2022-08-11T07:05:27;6.87;;;3.83;;
6825;SDS011;3451;52.476;13.316;2022-08-11T07:14:33;6.67;;;3.70;;
6825;SDS011;3451;52.476;13.316;2022-08-11T07:17:30;10.63;;;3.90;;
6825;SDS011;3451;52.476;13.316;2022-08-11T07:20:02;6.97;;;3.83;;
6825;SDS011;3451;52.476;13.316;2022-08-11T07:22:57;6.77;;;3.60;;
6825;SDS011;3451;52.476;13.316;2022-08-11T07:25:46;6.57;;;3.83;;
6825;SDS011;3451;52.476;13.316;2022-08-11T07:28:36;5.73;;;3.90;;
6825;SDS011;3451;52.476;13.316;2022-08-11T07:31:23;7.80;;;3.83;;
6825;SDS011;3451;52.476;13.316;2022-08-11T07:33:58;6.97;;;3.67;;
6825;SDS011;3451;52.476;13.316;2022-08-11T07:36:45;6.07;;;3.40;;
6825;SDS011;3451;52.476;13.316;2022-08-11T07:39:19;6.57;;;3.50;;
6825;SDS011;3451;52.476;13.316;2022-08-11T07:41:54;8.33;;;3.30;;
6825;SDS011;3451;52.476;13.316;2022-08-11T07:44:23;7.70;;;3.27;;
6825;SDS011;3451;52.476;13.316;2022-08-11T07:47:00;6.18;;;3.38;;
6825;SDS011;3451;52.476;13.316;2022-08-11T07:49:45;8.35;;;3.28;;
6825;SDS011;3451;52.476;13.316;2022-08-11T07:52:33;5.72;;;3.17;;
6825;SDS011;3451;52.476;13.316;2022-08-11T07:55:07;6.90;;;3.60;;
6825;SDS011;3451;52.476;13.316;2022-08-11T07:57:39;8.25;;;3.38;;
6825;SDS011;3451;52.476;13.316;2022-08-11T08:00:46;8.05;;;3.22;;
6825;SDS011;3451;52.476;13.316;2022-08-11T08:03:46;6.13;;;3.17;;
6825;SDS011;3451;52.476;13.316;2022-08-11T08:06:32;5.55;;;3.33;;
6825;SDS011;3451;52.476;13.316;2022-08-11T08:09:19;6.38;;;3.05;;
6825;SDS011;3451;52.476;13.316;2022-08-11T08:12:06;5.50;;;2.97;;
6825;SDS011;3451;52.476;13.316;2022-08-11T08:14:52;7.50;;;2.85;;
6825;SDS011;3451;52.476;13.316;2022-08-11T08:17:42;6.32;;;2.80;;
6825;SDS011;3451;52.476;13.316;2022-08-11T08:20:44;7.00;;;2.72;;
6825;SDS011;3451;52.476;13.316;2022-08-11T08:23:12;6.72;;;2.90;;
6825;SDS011;3451;52.476;13.316;2022-08-11T08:25:39;7.25;;;2.60;;
6825;SDS011;3451;52.476;13.316;2022-08-11T08:28:25;6.65;;;2.88;;
6825;SDS011;3451;52.476;13.316;2022-08-11T08:30:57;8.50;;;2.97;;
6825;SDS011;3451;52.476;13.316;2022-08-11T08:33:26;4.50;;;2.67;;
6825;SDS011;3451;52.476;13.316;2022-08-11T08:35:56;5.72;;;2.83;;
6825;SDS011;3451;52.476;13.316;2022-08-11T08:38:41;6.13;;;2.80;;
6825;SDS011;3451;52.476;13.316;2022-08-11T08:41:31;7.68;;;2.90;;
6825;SDS011;3451;52.476;13.316;2022-08-11T08:44:07;3.67;;;2.33;;
6825;SDS011;3451;52.476;13.316;2022-08-11T08:46:55;5.10;;;2.92;;
6825;SDS011;3451;52.476;13.316;2022-08-11T08:49:33;3.95;;;2.60;;
6825;SDS011;3451;52.476;13.316;2022-08-11T08:52:06;7.20;;;2.92;;
6825;SDS011;3451;52.476;13.316;2022-08-11T08:54:55;6.32;;;2.80;;
6825;SDS011;3451;52.476;13.316;2022-08-11T08:57:23;7.75;;;2.70;;
6825;SDS011;3451;52.476;13.316;2022-08-11T08:59:54;5.15;;;2.80;;
6825;SDS011;3451;52.476;13.316;2022-08-11T09:02:23;3.88;;;2.85;;
6825;SDS011;3451;52.476;13.316;2022-08-11T09:05:00;5.05;;;2.75;;
6825;SDS011;3451;52.476;13.316;2022-08-11T09:07:28;7.60;;;2.60;;
6825;SDS011;3451;52.476;13.316;2022-08-11T09:10:05;4.70;;;2.60;;
6825;SDS011;3451;52.476;13.316;2022-08-11T09:12:33;3.78;;;2.25;;
6825;SDS011;3451;52.476;13.316;2022-08-11T09:15:04;4.68;;;2.40;;
6825;SDS011;3451;52.476;13.316;2022-08-11T09:17:38;3.28;;;2.55;;
6825;SDS011;3451;52.476;13.316;2022-08-11T09:20:10;5.13;;;2.20;;
6825;SDS011;3451;52.476;13.316;2022-08-11T09:22:40;5.50;;;2.35;;
6825;SDS011;3451;52.476;13.316;2022-08-11T09:25:48;7.28;;;2.42;;
6825;SDS011;3451;52.476;13.316;2022-08-11T09:28:36;11.23;;;2.95;;
6825;SDS011;3451;52.476;13.316;2022-08-11T09:31:03;6.35;;;2.70;;
6825;SDS011;3451;52.476;13.316;2022-08-11T09:33:32;8.13;;;2.50;;
6825;SDS011;3451;52.476;13.316;2022-08-11T09:35:59;6.07;;;2.60;;
6825;SDS011;3451;52.476;13.316;2022-08-11T09:38:49;4.38;;;2.55;;
6825;SDS011;3451;52.476;13.316;2022-08-11T09:41:35;4.63;;;2.38;;
6825;SDS011;3451;52.476;13.316;2022-08-11T09:44:25;3.83;;;2.30;;
6825;SDS011;3451;52.476;13.316;2022-08-11T09:47:27;8.75;;;2.17;;
6825;SDS011;3451;52.476;13.316;2022-08-11T09:49:56;4.07;;;2.25;;
6825;SDS011;3451;52.476;13.316;2022-08-11T09:52:35;4.85;;;2.25;;
6825;SDS011;3451;52.476;13.316;2022-08-11T09:55:25;5.43;;;2.53;;
6825;SDS011;3451;52.476;13.316;2022-08-11T09:57:52;4.78;;;2.42;;
6825;SDS011;3451;52.476;13.316;2022-08-11T10:00:57;3.90;;;2.35;;
6825;SDS011;3451;52.476;13.316;2022-08-11T10:03:27;3.65;;;2.10;;
6825;SDS011;3451;52.476;13.316;2022-08-11T10:05:57;5.38;;;2.45;;
6825;SDS011;3451;52.476;13.316;2022-08-11T10:08:44;4.07;;;2.30;;
6825;SDS011;3451;52.476;13.316;2022-08-11T10:11:17;3.78;;;2.15;;
6825;SDS011;3451;52.476;13.316;2022-08-11T10:13:48;2.72;;;2.38;;
6825;SDS011;3451;52.476;13.316;2022-08-11T10:16:57;5.07;;;2.70;;
6825;SDS011;3451;52.476;13.316;2022-08-11T10:19:27;3.95;;;2.08;;
6825;SDS011;3451;52.476;13.316;2022-08-11T10:21:57;5.57;;;2.38;;
6825;SDS011;3451;52.476;13.316;2022-08-11T10:24:43;9.35;;;2.70;;
6825;SDS011;3451;52.476;13.316;2022-08-11T10:27:29;3.22;;;2.20;;
6825;SDS011;3451;52.476;13.316;2022-08-11T10:30:16;3.92;;;2.25;;
6825;SDS011;3451;52.476;13.316;2022-08-11T10:33:01;3.70;;;2.20;;
6825;SDS011;3451;52.476;13.316;2022-08-11T10:36:03;4.53;;;2.20;;
6825;SDS011;3451;52.476;13.316;2022-08-11T10:38:42;4.80;;;2.45;;
6825;SDS011;3451;52.476;13.316;2022-08-11T10:41:10;5.13;;;2.25;;
6825;SDS011;3451;52.476;13.316;2022-08-11T10:43:57;5.90;;;2.08;;
6825;SDS011;3451;52.476;13.316;2022-08-11T10:46:28;3.75;;;2.30;;
6825;SDS011;3451;52.476;13.316;2022-08-11T10:49:15;5.63;;;2.65;;
6825;SDS011;3451;52.476;13.316;2022-08-11T10:51:44;2.33;;;1.90;;
6825;SDS011;3451;52.476;13.316;2022-08-11T10:54:31;6.85;;;2.30;;
6825;SDS011;3451;52.476;13.316;2022-08-11T10:57:17;6.50;;;2.50;;
6825;SDS011;3451;52.476;13.316;2022-08-11T11:00:04;5.07;;;2.40;;
6825;SDS011;3451;52.476;13.316;2022-08-11T11:02:32;5.72;;;3.00;;
6825;SDS011;3451;52.476;13.316;2022-08-11T11:05:07;3.72;;;2.30;;
6825;SDS011;3451;52.476;13.316;2022-08-11T11:07:48;7.57;;;2.50;;
6825;SDS011;3451;52.476;13.316;2022-08-11T11:10:20;2.95;;;2.10;;
6825;SDS011;3451;52.476;13.316;2022-08-11T11:12:49;3.92;;;2.25;;
6825;SDS011;3451;52.476;13.316;2022-08-11T11:15:39;3.33;;;2.50;;
6825;SDS011;3451;52.476;13.316;2022-08-11T11:18:26;3.45;;;2.33;;
6825;SDS011;3451;52.476;13.316;2022-08-11T11:21:05;6.05;;;2.40;;
6825;SDS011;3451;52.476;13.316;2022-08-11T11:23:38;5.82;;;2.40;;
6825;SDS011;3451;52.476;13.316;2022-08-11T11:29:26;3.25;;;1.90;;
6825;SDS011;3451;52.476;13.316;2022-08-11T11:37:39;2.63;;;2.30;;
6825;SDS011;3451;52.476;13.316;2022-08-11T11:40:26;4.10;;;2.45;;
6825;SDS011;3451;52.476;13.316;2022-08-11T11:42:57;4.97;;;2.33;;
6825;SDS011;3451;52.476;13.316;2022-08-11T11:45:24;2.85;;;2.55;;
6825;SDS011;3451;52.476;13.316;2022-08-11T11:47:55;9.35;;;2.63;;
6825;SDS011;3451;52.476;13.316;2022-08-11T11:50:30;7.07;;;2.58;;
6825;SDS011;3451;52.476;13.316;2022-08-11T11:53:01;6.13;;;2.50;;
6825;SDS011;3451;52.476;13.316;2022-08-11T11:55:30;6.45;;;2.33;;
6825;SDS011;3451;52.476;13.316;2022-08-11T11:57:59;3.20;;;2.20;;
6825;SDS011;3451;52.476;13.316;2022-08-11T12:00:47;3.25;;;2.50;;
6825;SDS011;3451;52.476;13.316;2022-08-11T12:03:33;9.48;;;2.97;;
6825;SDS011;3451;52.476;13.316;2022-08-11T12:06:01;5.18;;;2.55;;
6825;SDS011;3451;52.476;13.316;2022-08-11T12:08:28;6.70;;;2.65;;
6825;SDS011;3451;52.476;13.316;2022-08-11T12:11:00;6.65;;;2.65;;
6825;SDS011;3451;52.476;13.316;2022-08-11T12:13:48;4.97;;;2.58;;
6825;SDS011;3451;52.476;13.316;2022-08-11T12:16:17;4.32;;;2.70;;
6825;SDS011;3451;52.476;13.316;2022-08-11T12:19:02;4.65;;;2.42;;
6825;SDS011;3451;52.476;13.316;2022-08-11T12:21:31;4.93;;;2.70;;
6825;SDS011;3451;52.476;13.316;2022-08-11T12:24:01;9.32;;;3.53;;
6825;SDS011;3451;52.476;13.316;2022-08-11T12:26:46;6.10;;;2.60;;
6825;SDS011;3451;52.476;13.316;2022-08-11T12:29:39;3.78;;;2.45;;
6825;SDS011;3451;52.476;13.316;2022-08-11T12:32:09;5.20;;;2.92;;
6825;SDS011;3451;52.476;13.316;2022-08-11T12:34:36;3.85;;;2.70;;
6825;SDS011;3451;52.476;13.316;2022-08-11T12:37:02;2.70;;;2.50;;
6825;SDS011;3451;52.476;13.316;2022-08-11T12:39:33;5.40;;;2.40;;
6825;SDS011;3451;52.476;13.316;2022-08-11T12:42:40;5.70;;;2.50;;
6825;SDS011;3451;52.476;13.316;2022-08-11T12:45:29;11.23;;;2.90;;
6825;SDS011;3451;52.476;13.316;2022-08-11T12:51:05;6.43;;;2.60;;
6825;SDS011;3451;52.476;13.316;2022-08-11T12:54:01;6.57;;;2.58;;
6825;SDS011;3451;52.476;13.316;2022-08-11T12:56:36;5.50;;;2.80;;
6825;SDS011;3451;52.476;13.316;2022-08-11T12:59:23;4.07;;;2.47;;
6825;SDS011;3451;52.476;13.316;2022-08-11T13:02:14;5.03;;;2.70;;
6825;SDS011;3451;52.476;13.316;2022-08-11T13:05:06;6.70;;;2.45;;
6825;SDS011;3451;52.476;13.316;2022-08-11T13:07:34;3.50;;;2.63;;
6825;SDS011;3451;52.476;13.316;2022-08-11T13:10:16;3.47;;;2.70;;
6825;SDS011;3451;52.476;13.316;2022-08-11T13:13:03;4.18;;;2.30;;
6825;SDS011;3451;52.476;13.316;2022-08-11T13:15:51;3.38;;;2.10;;
6825;SDS011;3451;52.476;13.316;2022-08-11T13:18:20;7.57;;;2.70;;
6825;SDS011;3451;52.476;13.316;2022-08-11T13:20:52;4.43;;;2.10;;
6825;SDS011;3451;52.476;13.316;2022-08-11T13:23:20;4.80;;;2.30;;
6825;SDS011;3451;52.476;13.316;2022-08-11T13:25:48;3.53;;;2.38;;
6825;SDS011;3451;52.476;13.316;2022-08-11T13:28:18;4.32;;;1.98;;
6825;SDS011;3451;52.476;13.316;2022-08-11T13:30:47;4.82;;;2.10;;
6825;SDS011;3451;52.476;13.316;2022-08-11T13:33:34;5.35;;;2.72;;
6825;SDS011;3451;52.476;13.316;2022-08-11T13:36:05;5.68;;;2.65;;
6825;SDS011;3451;52.476;13.316;2022-08-11T13:38:32;4.57;;;2.35;;
6825;SDS011;3451;52.476;13.316;2022-08-11T13:41:00;3.22;;;2.42;;
6825;SDS011;3451;52.476;13.316;2022-08-11T13:43:27;5.22;;;2.33;;
6825;SDS011;3451;52.476;13.316;2022-08-11T13:45:54;4.50;;;2.08;;
6825;SDS011;3451;52.476;13.316;2022-08-11T13:48:41;6.72;;;2.42;;
6825;SDS011;3451;52.476;13.316;2022-08-11T13:51:09;6.25;;;2.15;;
6825;SDS011;3451;52.476;13.316;2022-08-11T13:56:31;6.20;;;2.25;;
6825;SDS011;3451;52.476;13.316;2022-08-11T13:59:00;5.80;;;2.65;;
6825;SDS011;3451;52.476;13.316;2022-08-11T14:01:30;2.50;;;2.00;;
6825;SDS011;3451;52.476;13.316;2022-08-11T14:07:02;3.95;;;2.22;;
6825;SDS011;3451;52.476;13.316;2022-08-11T14:09:36;4.30;;;2.28;;
6825;SDS011;3451;52.476;13.316;2022-08-11T14:12:06;6.40;;;2.40;;
6825;SDS011;3451;52.476;13.316;2022-08-11T14:15:04;7.35;;;2.40;;
6825;SDS011;3451;52.476;13.316;2022-08-11T14:17:35;5.68;;;2.20;;
6825;SDS011;3451;52.476;13.316;2022-08-11T14:20:15;5.35;;;2.20;;
6825;SDS011;3451;52.476;13.316;2022-08-11T14:23:03;3.75;;;2.17;;
6825;SDS011;3451;52.476;13.316;2022-08-11T14:25:30;8.02;;;2.03;;
6825;SDS011;3451;52.476;13.316;2022-08-11T14:28:17;7.95;;;2.03;;
6825;SDS011;3451;52.476;13.316;2022-08-11T14:31:01;3.33;;;2.00;;
6825;SDS011;3451;52.476;13.316;2022-08-11T14:33:30;4.47;;;1.95;;
6825;SDS011;3451;52.476;13.316;2022-08-11T14:36:19;3.17;;;1.67;;
6825;SDS011;3451;52.476;13.316;2022-08-11T14:38:48;3.92;;;1.80;;
6825;SDS011;3451;52.476;13.316;2022-08-11T14:41:15;2.95;;;1.70;;
6825;SDS011;3451;52.476;13.316;2022-08-11T14:44:22;5.90;;;2.10;;
6825;SDS011;3451;52.476;13.316;2022-08-11T14:47:09;5.93;;;2.58;;
6825;SDS011;3451;52.476;13.316;2022-08-11T14:49:50;2.95;;;2.28;;
6825;SDS011;3451;52.476;13.316;2022-08-11T14:52:35;4.53;;;1.60;;
6825;SDS011;3451;52.476;13.316;2022-08-11T14:55:02;4.25;;;1.88;;
6825;SDS011;3451;52.476;13.316;2022-08-11T14:57:48;3.60;;;1.88;;
6825;SDS011;3451;52.476;13.316;2022-08-11T15:00:21;3.72;;;1.90;;
6825;SDS011;3451;52.476;13.316;2022-08-11T15:02:48;5.53;;;2.00;;
6825;SDS011;3451;52.476;13.316;2022-08-11T15:05:34;5.90;;;1.70;;
6825;SDS011;3451;52.476;13.316;2022-08-11T15:08:01;3.25;;;1.70;;
6825;SDS011;3451;52.476;13.316;2022-08-11T15:10:28;3.30;;;1.95;;
6825;SDS011;3451;52.476;13.316;2022-08-11T15:12:55;2.70;;;1.80;;
6825;SDS011;3451;52.476;13.316;2022-08-11T15:15:23;3.22;;;1.50;;
6825;SDS011;3451;52.476;13.316;2022-08-11T15:18:11;3.72;;;1.95;;
6825;SDS011;3451;52.476;13.316;2022-08-11T15:20:42;3.57;;;1.70;;
6825;SDS011;3451;52.476;13.316;2022-08-11T15:23:28;3.65;;;1.88;;
6825;SDS011;3451;52.476;13.316;2022-08-11T15:26:18;4.03;;;1.50;;
6825;SDS011;3451;52.476;13.316;2022-08-11T15:29:10;6.30;;;3.70;;
6825;SDS011;3451;52.476;13.316;2022-08-11T15:31:57;3.07;;;1.80;;
6825;SDS011;3451;52.476;13.316;2022-08-11T15:34:44;2.57;;;1.63;;
6825;SDS011;3451;52.476;13.316;2022-08-11T15:37:35;1.63;;;1.50;;
6825;SDS011;3451;52.476;13.316;2022-08-11T15:40:45;2.88;;;1.60;;
6825;SDS011;3451;52.476;13.316;2022-08-11T15:43:28;5.72;;;1.60;;
6825;SDS011;3451;52.476;13.316;2022-08-11T15:46:27;5.53;;;1.50;;
6825;SDS011;3451;52.476;13.316;2022-08-11T15:49:04;1.92;;;1.52;;
6825;SDS011;3451;52.476;13.316;2022-08-11T15:51:36;5.00;;;1.60;;
6825;SDS011;3451;52.476;13.316;2022-08-11T15:54:09;9.33;;;3.03;;
6825;SDS011;3451;52.476;13.316;2022-08-11T15:56:41;4.53;;;2.83;;
6825;SDS011;3451;52.476;13.316;2022-08-11T15:59:12;8.35;;;5.63;;
6825;SDS011;3451;52.476;13.316;2022-08-11T16:02:09;4.60;;;1.60;;
6825;SDS011;3451;52.476;13.316;2022-08-11T16:04:41;4.40;;;1.97;;
6825;SDS011;3451;52.476;13.316;2022-08-11T16:07:11;7.63;;;2.08;;
6825;SDS011;3451;52.476;13.316;2022-08-11T16:09:41;3.55;;;1.40;;
6825;SDS011;3451;52.476;13.316;2022-08-11T16:12:29;3.23;;;1.30;;
6825;SDS011;3451;52.476;13.316;2022-08-11T16:15:04;4.40;;;1.38;;
6825;SDS011;3451;52.476;13.316;2022-08-11T16:17:58;2.27;;;1.27;;
6825;SDS011;3451;52.476;13.316;2022-08-11T16:20:27;2.03;;;1.83;;
6825;SDS011;3451;52.476;13.316;2022-08-11T16:22:57;3.53;;;2.87;;
6825;SDS011;3451;52.476;13.316;2022-08-11T16:25:28;6.97;;;1.20;;
6825;SDS011;3451;52.476;13.316;2022-08-11T16:28:17;3.20;;;1.40;;
6825;SDS011;3451;52.476;13.316;2022-08-11T16:30:45;4.90;;;1.60;;
6825;SDS011;3451;52.476;13.316;2022-08-11T16:33:14;4.40;;;1.30;;
6825;SDS011;3451;52.476;13.316;2022-08-11T16:36:02;4.60;;;1.57;;
6825;SDS011;3451;52.476;13.316;2022-08-11T16:38:48;3.40;;;1.20;;
6825;SDS011;3451;52.476;13.316;2022-08-11T16:41:17;3.27;;;1.40;;
6825;SDS011;3451;52.476;13.316;2022-08-11T16:44:09;2.50;;;1.23;;
6825;SDS011;3451;52.476;13.316;2022-08-11T16:47:03;3.63;;;2.27;;
6825;SDS011;3451;52.476;13.316;2022-08-11T16:49:35;3.20;;;1.50;;
6825;SDS011;3451;52.476;13.316;2022-08-11T16:52:07;1.73;;;1.50;;
6825;SDS011;3451;52.476;13.316;2022-08-11T16:54:37;7.85;;;1.38;;
6825;SDS011;3451;52.476;13.316;2022-08-11T16:57:11;3.67;;;1.40;;
6825;SDS011;3451;52.476;13.316;2022-08-11T17:00:00;3.03;;;1.50;;
6825;SDS011;3451;52.476;13.316;2022-08-11T17:02:32;4.30;;;1.27;;
6825;SDS011;3451;52.476;13.316;2022-08-11T17:05:21;2.77;;;1.23;;
6825;SDS011;3451;52.476;13.316;2022-08-11T17:08:20;1.60;;;1.20;;
6825;SDS011;3451;52.476;13.316;2022-08-11T17:11:21;2.23;;;1.30;;
6825;SDS011;3451;52.476;13.316;2022-08-11T17:14:21;2.67;;;1.10;;
6825;SDS011;3451;52.476;13.316;2022-08-11T17:17:11;3.20;;;1.20;;
6825;SDS011;3451;52.476;13.316;2022-08-11T17:19:41;2.47;;;1.40;;
6825;SDS011;3451;52.476;13.316;2022-08-11T17:22:33;5.47;;;1.90;;
6825;SDS011;3451;52.476;13.316;2022-08-11T17:25:21;5.07;;;1.53;;
6825;SDS011;3451;52.476;13.316;2022-08-11T17:27:50;2.63;;;1.30;;
6825;SDS011;3451;52.476;13.316;2022-08-11T17:30:19;1.13;;;1.03;;
6825;SDS011;3451;52.476;13.316;2022-08-11T17:32:47;3.40;;;1.20;;
6825;SDS011;3451;52.476;13.316;2022-08-11T17:35:35;1.50;;;1.30;;
6825;SDS011;3451;52.476;13.316;2022-08-11T17:38:08;3.00;;;1.30;;
6825;SDS011;3451;52.476;13.316;2022-08-11T17:40:39;3.10;;;1.53;;
6825;SDS011;3451;52.476;13.316;2022-08-11T17:43:29;3.90;;;1.57;;
6825;SDS011;3451;52.476;13.316;2022-08-11T17:46:15;4.50;;;1.30;;
6825;SDS011;3451;52.476;13.316;2022-08-11T17:49:01;1.73;;;1.10;;
6825;SDS011;3451;52.476;13.316;2022-08-11T17:51:32;10.87;;;7.93;;
6825;SDS011;3451;52.476;13.316;2022-08-11T17:54:19;4.63;;;1.40;;
6825;SDS011;3451;52.476;13.316;2022-08-11T17:57:07;1.63;;;1.30;;
6825;SDS011;3451;52.476;13.316;2022-08-11T17:59:53;2.90;;;1.47;;
6825;SDS011;3451;52.476;13.316;2022-08-11T18:02:26;3.57;;;1.70;;
6825;SDS011;3451;52.476;13.316;2022-08-11T18:05:18;3.37;;;1.43;;
6825;SDS011;3451;52.476;13.316;2022-08-11T18:07:47;4.93;;;1.37;;
6825;SDS011;3451;52.476;13.316;2022-08-11T18:10:35;7.33;;;1.37;;
6825;SDS011;3451;52.476;13.316;2022-08-11T18:13:29;3.67;;;1.60;;
6825;SDS011;3451;52.476;13.316;2022-08-11T18:16:16;3.30;;;1.10;;
6825;SDS011;3451;52.476;13.316;2022-08-11T18:19:02;5.80;;;1.50;;
6825;SDS011;3451;52.476;13.316;2022-08-11T18:21:49;3.10;;;1.80;;
6825;SDS011;3451;52.476;13.316;2022-08-11T18:24:43;2.77;;;1.37;;
6825;SDS011;3451;52.476;13.316;2022-08-11T18:27:32;2.43;;;1.33;;
6825;SDS011;3451;52.476;13.316;2022-08-11T18:30:19;2.87;;;1.63;;
6825;SDS011;3451;52.476;13.316;2022-08-11T18:33:08;5.23;;;1.70;;
6825;SDS011;3451;52.476;13.316;2022-08-11T18:36:19;5.20;;;1.80;;
6825;SDS011;3451;52.476;13.316;2022-08-11T18:39:08;6.40;;;1.80;;
6825;SDS011;3451;52.476;13.316;2022-08-11T18:41:57;3.10;;;1.80;;
6825;SDS011;3451;52.476;13.316;2022-08-11T18:44:55;3.30;;;1.87;;
6825;SDS011;3451;52.476;13.316;2022-08-11T18:47:47;3.90;;;1.80;;
6825;SDS011;3451;52.476;13.316;2022-08-11T18:50:37;2.87;;;1.70;;
6825;SDS011;3451;52.476;13.316;2022-08-11T18:53:48;4.17;;;1.73;;
6825;SDS011;3451;52.476;13.316;2022-08-11T18:56:36;5.50;;;1.63;;
6825;SDS011;3451;52.476;13.316;2022-08-11T18:59:23;4.57;;;1.50;;